Nearby METAR Reports

 

LIBV - Gioia Del Colle, Italy
Distance from station: SSE 15km
Ultima actualizare: 26/06/2019 13:55
Few Clouds
Few Clouds
 Vânt dela N
Vântul: N 24 km/h
Temperatura: 28°C
Heat Index: 28°C
Punct de rouă: 16°C
Umiditate: 48%
Clouds: Few Clouds
Visibility: 10 km
Cloud details: Few Clouds 914 m
2019/06/26 11:55 LIBV 261155Z 36013KT 9999 FEW030 28/16 Q//// RMK FEW VIS MIN 9999 WIND THR32 02012KT WIND THR14 36014KT BLU
LIBD - Bari/Palese Macc, Italy
Distance from station: NNV 26km
Ultima actualizare: 26/06/2019 14:20
Senin
Senin
 Vânt dela NE
Vântul: NE 19 km/h
Temperatura: 29°C
Heat Index: 31°C
Punct de rouă: 20°C
Umiditate: 58%
Barometru: 1020 hPa
Sumar: Senin
Visibility: greater than 10 km
2019/06/26 12:20 LIBD 261220Z 05010KT CAVOK 29/20 Q1020
 
LIBH - Marina Di Ginosa, Italy
Distance from station: S 53km
Ultima actualizare: 26/06/2019 13:55
Few Clouds
Few Clouds
 Vânt dela NNE
Vântul: NNE 24 km/h
Temperatura: 36°C
Punct de rouă: 20°C
Umiditate: 39%
Barometru: 1017 hPa
Clouds: Few Clouds
Visibility: 10 km
Cloud details: Few Clouds 762 m
2019/06/26 11:55 LIBH 261155Z 02013KT 9999 FEW025TCU 36/20 Q1017 RMK FEW QUK 3 QUL 2 NE VIS MAR 25 KM VIS MIN 9999
LIBG - Grottaglie(Civ/A, Italy
Distance from station: SE 61km
Ultima actualizare: 26/06/2019 13:50
Senin
Senin
 Vânt dela NNE
Vântul: NNE 30 km/h
Temperatura: 32°C
Heat Index: 34°C
Punct de rouă: 19°C
Umiditate: 46%
Barometru: 1017 hPa
Sumar: Senin
Visibility: greater than 10 km
2019/06/26 11:50 LIBG 261150Z 02016KT CAVOK 32/19 Q1017
 
LIBR - Brindisi/Casale, Italy
Distance from station: ESE 96km
Ultima actualizare: 26/06/2019 14:20
Senin
Senin
 Vânt dela NNV
Vântul: NNV 22 km/h
Temperatura: 29°C
Heat Index: 31°C
Punct de rouă: 20°C
Umiditate: 58%
Barometru: 1018 hPa
Sumar: Senin
Visibility: greater than 10 km
2019/06/26 12:20 LIBR 261220Z 34012KT CAVOK 29/20 Q1018
LIBA - Amendola (it-Afb, Italy
Distance from station: NV 118km
Ultima actualizare: 26/06/2019 13:55
Few Clouds
Few Clouds
 Vânt dela NE
Vântul: NE 17 km/h
Temperatura: 34°C
Punct de rouă: 15°C
Umiditate: 32%
Barometru: 1019 hPa
Clouds: Few Clouds
Visibility: 10 km
Cloud details: Few Clouds 1829 m
2019/06/26 11:55 LIBA 261155Z 04009KT 9999 FEW060 34/15 Q1019 RMK FEW VIS MIN 9999 WIND THR11 04009G19KT WIND THR29 /////KT BLU
 
LIBF - Foggia/Gino Lisa, Italy
Distance from station: VNV 126km
Ultima actualizare: 26/06/2019 13:50
Senin
Senin
 Vânt dela NNV
Vântul: NNV 33 km/h
Temperatura: 32°C
Heat Index: 33°C
Punct de rouă: 17°C
Umiditate: 41%
Barometru: 1019 hPa
Sumar: Senin
Visibility: greater than 10 km
2019/06/26 11:50 LIBF 261150Z 33018KT CAVOK 32/17 Q1019
LIBN - Lecce (it-Afb), Italy
Distance from station: SE 132km
Ultima actualizare: 26/06/2019 13:55
Senin
Senin
 Vânt dela N
Vântul: N 26 km/h
Temperatura: 32°C
Heat Index: 36°C
Punct de rouă: 21°C
Umiditate: 52%
Barometru: 1017 hPa
Sumar: Senin
Visibility: greater than 10 km
2019/06/26 11:55 LIBN 261155Z 01014KT CAVOK 32/21 Q1017 RMK SCT SCT200 VIS MIN 9999 WIND THR14 01014KT WIND THR32 01014KT BLU